sensor_id;sensor_type;location;lat;lon;timestamp;pressure;altitude;pressure_sealevel;temperature;humidity
12203;BME280;6164;42.178;24.622;2023-04-25T00:00:35;98978.75;;;14.42;100.00
12203;BME280;6164;42.178;24.622;2023-04-25T00:03:02;98977.91;;;14.42;100.00
12203;BME280;6164;42.178;24.622;2023-04-25T00:05:30;98982.81;;;14.45;100.00
12203;BME280;6164;42.178;24.622;2023-04-25T00:07:57;98976.69;;;14.44;100.00
12203;BME280;6164;42.178;24.622;2023-04-25T00:10:24;98968.50;;;14.46;100.00
12203;BME280;6164;42.178;24.622;2023-04-25T00:12:52;98971.19;;;14.46;100.00
12203;BME280;6164;42.178;24.622;2023-04-25T00:15:19;98962.81;;;14.42;100.00
12203;BME280;6164;42.178;24.622;2023-04-25T00:17:46;98958.91;;;14.45;100.00
12203;BME280;6164;42.178;24.622;2023-04-25T00:20:12;98946.22;;;14.47;100.00
12203;BME280;6164;42.178;24.622;2023-04-25T00:22:39;98939.53;;;14.44;100.00
12203;BME280;6164;42.178;24.622;2023-04-25T00:25:07;98936.22;;;14.49;100.00
12203;BME280;6164;42.178;24.622;2023-04-25T00:27:34;98936.22;;;14.49;100.00
12203;BME280;6164;42.178;24.622;2023-04-25T00:30:02;98937.63;;;14.51;100.00
12203;BME280;6164;42.178;24.622;2023-04-25T00:32:29;98938.25;;;14.53;100.00
12203;BME280;6164;42.178;24.622;2023-04-25T00:34:55;98938.66;;;14.57;100.00
12203;BME280;6164;42.178;24.622;2023-04-25T00:37:23;98937.41;;;14.53;100.00
12203;BME280;6164;42.178;24.622;2023-04-25T00:39:50;98937.63;;;14.51;100.00
12203;BME280;6164;42.178;24.622;2023-04-25T00:42:18;98944.19;;;14.49;100.00
12203;BME280;6164;42.178;24.622;2023-04-25T00:44:46;98945.22;;;14.41;100.00
12203;BME280;6164;42.178;24.622;2023-04-25T00:47:15;98940.13;;;14.33;100.00
12203;BME280;6164;42.178;24.622;2023-04-25T00:49:42;98926.09;;;14.26;100.00
12203;BME280;6164;42.178;24.622;2023-04-25T00:52:09;98944.03;;;14.31;100.00
12203;BME280;6164;42.178;24.622;2023-04-25T00:54:36;98937.28;;;14.28;100.00
12203;BME280;6164;42.178;24.622;2023-04-25T00:57:02;98943.84;;;14.26;100.00
12203;BME280;6164;42.178;24.622;2023-04-25T00:59:30;98944.47;;;14.28;100.00
12203;BME280;6164;42.178;24.622;2023-04-25T01:01:58;98949.31;;;14.24;100.00
12203;BME280;6164;42.178;24.622;2023-04-25T01:04:27;98950.97;;;14.19;100.00
12203;BME280;6164;42.178;24.622;2023-04-25T01:06:54;98947.50;;;14.05;100.00
12203;BME280;6164;42.178;24.622;2023-04-25T01:09:21;98946.94;;;13.90;100.00
12203;BME280;6164;42.178;24.622;2023-04-25T01:11:48;98930.59;;;13.74;100.00
12203;BME280;6164;42.178;24.622;2023-04-25T01:14:15;98944.25;;;13.64;100.00
12203;BME280;6164;42.178;24.622;2023-04-25T01:16:42;98948.13;;;13.55;100.00
12203;BME280;6164;42.178;24.622;2023-04-25T01:19:10;98955.63;;;13.32;100.00
12203;BME280;6164;42.178;24.622;2023-04-25T01:21:39;98954.19;;;13.23;100.00
12203;BME280;6164;42.178;24.622;2023-04-25T01:24:06;98953.38;;;13.16;100.00
12203;BME280;6164;42.178;24.622;2023-04-25T01:26:33;98955.41;;;13.27;100.00
12203;BME280;6164;42.178;24.622;2023-04-25T01:29:01;98935.03;;;13.21;100.00
12203;BME280;6164;42.178;24.622;2023-04-25T01:31:27;98951.38;;;13.38;100.00
12203;BME280;6164;42.178;24.622;2023-04-25T01:33:54;98957.69;;;13.37;100.00
12203;BME280;6164;42.178;24.622;2023-04-25T01:36:21;98943.81;;;13.35;100.00
12203;BME280;6164;42.178;24.622;2023-04-25T01:38:49;98940.72;;;13.18;100.00
12203;BME280;6164;42.178;24.622;2023-04-25T01:41:16;98940.69;;;13.11;100.00
12203;BME280;6164;42.178;24.622;2023-04-25T01:43:43;98947.69;;;13.26;100.00
12203;BME280;6164;42.178;24.622;2023-04-25T01:46:11;98956.25;;;13.28;100.00
12203;BME280;6164;42.178;24.622;2023-04-25T01:48:37;98952.59;;;13.35;100.00
12203;BME280;6164;42.178;24.622;2023-04-25T01:51:04;98953.81;;;13.39;100.00
12203;BME280;6164;42.178;24.622;2023-04-25T01:53:31;98947.69;;;13.39;100.00
12203;BME280;6164;42.178;24.622;2023-04-25T01:55:59;98940.38;;;13.41;100.00
12203;BME280;6164;42.178;24.622;2023-04-25T01:58:26;98925.84;;;13.30;100.00
12203;BME280;6164;42.178;24.622;2023-04-25T02:00:52;98927.69;;;13.23;100.00
12203;BME280;6164;42.178;24.622;2023-04-25T02:03:19;98928.09;;;13.20;100.00
12203;BME280;6164;42.178;24.622;2023-04-25T02:05:46;98935.44;;;13.31;100.00
12203;BME280;6164;42.178;24.622;2023-04-25T02:08:13;98918.75;;;13.37;100.00
12203;BME280;6164;42.178;24.622;2023-04-25T02:10:39;98923.63;;;13.40;100.00
12203;BME280;6164;42.178;24.622;2023-04-25T02:13:07;98920.97;;;13.40;100.00
12203;BME280;6164;42.178;24.622;2023-04-25T02:15:34;98919.16;;;13.34;100.00
12203;BME280;6164;42.178;24.622;2023-04-25T02:18:01;98887.25;;;13.01;100.00
12203;BME280;6164;42.178;24.622;2023-04-25T02:20:28;98922.34;;;13.16;100.00
12203;BME280;6164;42.178;24.622;2023-04-25T02:22:55;98901.16;;;13.10;100.00
12203;BME280;6164;42.178;24.622;2023-04-25T02:25:22;98919.13;;;13.28;100.00
12203;BME280;6164;42.178;24.622;2023-04-25T02:27:49;98914.84;;;13.27;100.00
12203;BME280;6164;42.178;24.622;2023-04-25T02:30:18;98920.53;;;13.23;100.00
12203;BME280;6164;42.178;24.622;2023-04-25T02:32:45;98919.50;;;13.18;100.00
12203;BME280;6164;42.178;24.622;2023-04-25T02:35:12;98927.09;;;13.28;100.00
12203;BME280;6164;42.178;24.622;2023-04-25T02:37:39;98927.47;;;13.31;100.00
12203;BME280;6164;42.178;24.622;2023-04-25T02:40:07;98928.94;;;13.34;100.00
12203;BME280;6164;42.178;24.622;2023-04-25T02:42:34;98924.66;;;13.33;100.00
12203;BME280;6164;42.178;24.622;2023-04-25T02:45:01;98927.69;;;13.36;100.00
12203;BME280;6164;42.178;24.622;2023-04-25T02:47:29;98932.56;;;13.19;100.00
12203;BME280;6164;42.178;24.622;2023-04-25T02:49:56;98927.28;;;13.26;100.00
12203;BME280;6164;42.178;24.622;2023-04-25T02:52:23;98924.81;;;13.18;100.00
12203;BME280;6164;42.178;24.622;2023-04-25T02:54:50;98905.66;;;13.16;100.00
12203;BME280;6164;42.178;24.622;2023-04-25T02:57:16;98919.34;;;13.26;100.00
12203;BME280;6164;42.178;24.622;2023-04-25T02:59:43;98911.78;;;13.23;100.00
12203;BME280;6164;42.178;24.622;2023-04-25T03:02:10;98919.72;;;13.30;100.00
12203;BME280;6164;42.178;24.622;2023-04-25T03:04:38;98905.88;;;13.21;100.00
12203;BME280;6164;42.178;24.622;2023-04-25T03:07:05;98911.53;;;13.11;100.00
12203;BME280;6164;42.178;24.622;2023-04-25T03:09:31;98897.72;;;13.16;100.00
12203;BME280;6164;42.178;24.622;2023-04-25T03:11:58;98903.03;;;13.23;100.00
12203;BME280;6164;42.178;24.622;2023-04-25T03:14:25;98908.53;;;13.28;100.00
12203;BME280;6164;42.178;24.622;2023-04-25T03:16:52;98899.34;;;13.30;100.00
12203;BME280;6164;42.178;24.622;2023-04-25T03:19:19;98902.63;;;13.32;100.00
12203;BME280;6164;42.178;24.622;2023-04-25T03:21:47;98906.91;;;13.33;100.00
12203;BME280;6164;42.178;24.622;2023-04-25T03:24:14;98909.53;;;13.33;100.00
12203;BME280;6164;42.178;24.622;2023-04-25T03:26:40;98908.53;;;13.34;100.00
12203;BME280;6164;42.178;24.622;2023-04-25T03:29:07;98896.72;;;13.37;100.00
12203;BME280;6164;42.178;24.622;2023-04-25T03:31:34;98891.41;;;13.37;100.00
12203;BME280;6164;42.178;24.622;2023-04-25T03:34:01;98898.53;;;13.36;100.00
12203;BME280;6164;42.178;24.622;2023-04-25T03:36:27;98894.06;;;13.37;100.00
12203;BME280;6164;42.178;24.622;2023-04-25T03:38:55;98887.56;;;13.39;100.00
12203;BME280;6164;42.178;24.622;2023-04-25T03:41:22;98883.66;;;13.42;100.00
12203;BME280;6164;42.178;24.622;2023-04-25T03:43:49;98894.88;;;13.44;100.00
12203;BME280;6164;42.178;24.622;2023-04-25T03:46:16;98897.13;;;13.40;100.00
12203;BME280;6164;42.178;24.622;2023-04-25T03:48:42;98882.25;;;13.39;100.00
12203;BME280;6164;42.178;24.622;2023-04-25T03:51:09;98886.50;;;13.40;100.00
12203;BME280;6164;42.178;24.622;2023-04-25T03:53:36;98873.88;;;13.42;100.00
12203;BME280;6164;42.178;24.622;2023-04-25T03:56:04;98883.44;;;13.43;100.00
12203;BME280;6164;42.178;24.622;2023-04-25T03:58:31;98879.38;;;13.47;100.00
12203;BME280;6164;42.178;24.622;2023-04-25T04:00:58;98888.34;;;13.53;100.00
12203;BME280;6164;42.178;24.622;2023-04-25T04:03:25;98876.75;;;13.54;100.00
12203;BME280;6164;42.178;24.622;2023-04-25T04:05:51;98879.81;;;13.57;100.00
12203;BME280;6164;42.178;24.622;2023-04-25T04:08:18;98863.69;;;13.59;100.00
12203;BME280;6164;42.178;24.622;2023-04-25T04:10:45;98851.03;;;13.48;100.00
12203;BME280;6164;42.178;24.622;2023-04-25T04:13:13;98872.22;;;13.61;100.00
12203;BME280;6164;42.178;24.622;2023-04-25T04:15:40;98885.91;;;13.64;100.00
12203;BME280;6164;42.178;24.622;2023-04-25T04:18:06;98883.03;;;13.66;100.00
12203;BME280;6164;42.178;24.622;2023-04-25T04:20:33;98876.09;;;13.71;100.00
12203;BME280;6164;42.178;24.622;2023-04-25T04:23:00;98888.53;;;13.77;100.00
12203;BME280;6164;42.178;24.622;2023-04-25T04:25:27;98897.72;;;13.81;100.00
12203;BME280;6164;42.178;24.622;2023-04-25T04:27:54;98892.00;;;13.84;100.00
12203;BME280;6164;42.178;24.622;2023-04-25T04:30:23;98890.81;;;13.80;100.00
12203;BME280;6164;42.178;24.622;2023-04-25T04:32:50;98882.63;;;13.82;100.00
12203;BME280;6164;42.178;24.622;2023-04-25T04:35:17;98883.44;;;13.82;100.00
12203;BME280;6164;42.178;24.622;2023-04-25T04:37:44;98882.22;;;13.85;100.00
12203;BME280;6164;42.178;24.622;2023-04-25T04:40:11;98889.16;;;13.86;100.00
12203;BME280;6164;42.178;24.622;2023-04-25T04:42:40;98890.78;;;13.87;100.00
12203;BME280;6164;42.178;24.622;2023-04-25T04:45:08;98871.41;;;13.73;100.00
12203;BME280;6164;42.178;24.622;2023-04-25T04:47:36;98886.47;;;13.92;100.00
12203;BME280;6164;42.178;24.622;2023-04-25T04:50:05;98893.63;;;13.98;100.00
12203;BME280;6164;42.178;24.622;2023-04-25T04:52:32;98888.09;;;14.06;100.00
12203;BME280;6164;42.178;24.622;2023-04-25T04:54:59;98900.75;;;14.11;100.00
12203;BME280;6164;42.178;24.622;2023-04-25T04:57:26;98903.19;;;14.12;100.00
12203;BME280;6164;42.178;24.622;2023-04-25T04:59:52;98906.66;;;14.19;100.00
12203;BME280;6164;42.178;24.622;2023-04-25T05:02:19;98907.69;;;14.25;100.00
12203;BME280;6164;42.178;24.622;2023-04-25T05:04:47;98891.13;;;14.23;100.00
12203;BME280;6164;42.178;24.622;2023-04-25T05:07:15;98893.38;;;14.32;100.00
12203;BME280;6164;42.178;24.622;2023-04-25T05:09:42;98889.66;;;14.40;100.00
12203;BME280;6164;42.178;24.622;2023-04-25T05:12:09;98891.28;;;14.47;100.00
12203;BME280;6164;42.178;24.622;2023-04-25T05:14:36;98894.94;;;14.53;100.00
12203;BME280;6164;42.178;24.622;2023-04-25T05:17:02;98895.50;;;14.62;100.00
12203;BME280;6164;42.178;24.622;2023-04-25T05:19:32;98892.63;;;14.70;100.00
12203;BME280;6164;42.178;24.622;2023-04-25T05:22:00;98891.78;;;14.76;100.00
12203;BME280;6164;42.178;24.622;2023-04-25T05:24:26;98895.03;;;14.84;100.00
12203;BME280;6164;42.178;24.622;2023-04-25T05:26:53;98892.72;;;14.88;100.00
12203;BME280;6164;42.178;24.622;2023-04-25T05:29:20;98896.38;;;14.93;100.00
12203;BME280;6164;42.178;24.622;2023-04-25T05:31:46;98844.66;;;14.58;100.00
12203;BME280;6164;42.178;24.622;2023-04-25T05:34:14;98880.88;;;14.90;100.00
12203;BME280;6164;42.178;24.622;2023-04-25T05:36:41;98882.38;;;14.73;100.00
12203;BME280;6164;42.178;24.622;2023-04-25T05:39:10;98883.78;;;14.82;100.00
12203;BME280;6164;42.178;24.622;2023-04-25T05:41:36;98880.72;;;14.79;100.00
12203;BME280;6164;42.178;24.622;2023-04-25T05:44:03;98878.22;;;14.90;100.00
12203;BME280;6164;42.178;24.622;2023-04-25T05:46:30;98881.88;;;14.96;100.00
12203;BME280;6164;42.178;24.622;2023-04-25T05:48:57;98872.66;;;14.98;100.00
12203;BME280;6164;42.178;24.622;2023-04-25T05:51:24;98869.50;;;15.08;100.00
12203;BME280;6164;42.178;24.622;2023-04-25T05:53:51;98874.41;;;15.11;100.00
12203;BME280;6164;42.178;24.622;2023-04-25T05:56:19;98867.97;;;15.25;100.00
12203;BME280;6164;42.178;24.622;2023-04-25T05:58:46;98872.22;;;15.32;100.00
12203;BME280;6164;42.178;24.622;2023-04-25T06:01:12;98868.31;;;15.35;100.00
12203;BME280;6164;42.178;24.622;2023-04-25T06:03:39;98863.59;;;15.37;100.00
12203;BME280;6164;42.178;24.622;2023-04-25T06:06:08;98861.28;;;15.47;100.00
12203;BME280;6164;42.178;24.622;2023-04-25T06:08:35;98858.56;;;15.53;100.00
12203;BME280;6164;42.178;24.622;2023-04-25T06:11:03;98859.94;;;15.62;100.00
12203;BME280;6164;42.178;24.622;2023-04-25T06:13:31;98853.56;;;15.63;100.00
12203;BME280;6164;42.178;24.622;2023-04-25T06:15:57;98842.31;;;15.43;100.00
12203;BME280;6164;42.178;24.622;2023-04-25T06:18:24;98844.03;;;15.56;100.00
12203;BME280;6164;42.178;24.622;2023-04-25T06:20:51;98793.47;;;15.31;100.00
12203;BME280;6164;42.178;24.622;2023-04-25T06:23:18;98834.03;;;15.76;100.00
12203;BME280;6164;42.178;24.622;2023-04-25T06:25:44;98836.41;;;15.84;100.00
12203;BME280;6164;42.178;24.622;2023-04-25T06:28:11;98833.66;;;15.91;100.00
12203;BME280;6164;42.178;24.622;2023-04-25T06:30:39;98830.25;;;16.02;100.00
12203;BME280;6164;42.178;24.622;2023-04-25T06:33:06;98840.69;;;16.03;100.00
12203;BME280;6164;42.178;24.622;2023-04-25T06:35:34;98837.66;;;16.00;100.00
12203;BME280;6164;42.178;24.622;2023-04-25T06:38:00;98841.75;;;16.20;100.00
12203;BME280;6164;42.178;24.622;2023-04-25T06:40:27;98845.94;;;16.28;100.00
12203;BME280;6164;42.178;24.622;2023-04-25T06:42:54;98847.06;;;16.38;100.00
12203;BME280;6164;42.178;24.622;2023-04-25T06:45:20;98842.19;;;16.53;100.00
12203;BME280;6164;42.178;24.622;2023-04-25T06:47:48;98839.22;;;16.61;100.00
12203;BME280;6164;42.178;24.622;2023-04-25T06:50:15;98838.03;;;16.57;100.00
12203;BME280;6164;42.178;24.622;2023-04-25T06:52:42;98837.94;;;16.64;100.00
12203;BME280;6164;42.178;24.622;2023-04-25T06:55:09;98835.00;;;16.72;100.00
12203;BME280;6164;42.178;24.622;2023-04-25T06:57:35;98829.13;;;16.81;100.00
12203;BME280;6164;42.178;24.622;2023-04-25T07:00:03;98831.84;;;17.04;100.00
12203;BME280;6164;42.178;24.622;2023-04-25T07:02:33;98827.59;;;17.27;100.00
12203;BME280;6164;42.178;24.622;2023-04-25T07:08:28;98824.44;;;17.48;100.00
12203;BME280;6164;42.178;24.622;2023-04-25T07:10:55;98818.75;;;17.56;100.00
12203;BME280;6164;42.178;24.622;2023-04-25T07:13:22;98820.25;;;17.52;100.00
12203;BME280;6164;42.178;24.622;2023-04-25T07:15:49;98818.50;;;17.57;100.00
12203;BME280;6164;42.178;24.622;2023-04-25T07:18:16;98824.66;;;17.69;100.00
12203;BME280;6164;42.178;24.622;2023-04-25T07:20:43;98820.00;;;17.88;100.00
12203;BME280;6164;42.178;24.622;2023-04-25T07:23:09;98820.00;;;17.88;100.00
12203;BME280;6164;42.178;24.622;2023-04-25T07:25:38;98813.53;;;17.84;100.00
12203;BME280;6164;42.178;24.622;2023-04-25T07:28:04;98803.88;;;17.83;100.00
12203;BME280;6164;42.178;24.622;2023-04-25T07:30:31;98806.06;;;17.86;100.00
12203;BME280;6164;42.178;24.622;2023-04-25T07:32:59;98808.06;;;17.67;100.00
12203;BME280;6164;42.178;24.622;2023-04-25T07:35:25;98805.53;;;17.72;100.00
12203;BME280;6164;42.178;24.622;2023-04-25T07:37:52;98805.16;;;17.80;100.00
12203;BME280;6164;42.178;24.622;2023-04-25T07:40:19;98772.88;;;17.93;100.00
12203;BME280;6164;42.178;24.622;2023-04-25T07:42:47;98803.31;;;18.44;100.00
12203;BME280;6164;42.178;24.622;2023-04-25T07:45:14;98800.78;;;18.65;100.00
12203;BME280;6164;42.178;24.622;2023-04-25T07:47:40;98800.25;;;18.80;100.00
12203;BME280;6164;42.178;24.622;2023-04-25T07:50:08;98787.16;;;18.95;99.00
12203;BME280;6164;42.178;24.622;2023-04-25T07:52:36;98786.00;;;19.19;100.00
12203;BME280;6164;42.178;24.622;2023-04-25T07:55:03;98783.72;;;19.27;96.03
12203;BME280;6164;42.178;24.622;2023-04-25T07:57:30;98789.31;;;19.42;92.20
12203;BME280;6164;42.178;24.622;2023-04-25T07:59:58;98792.16;;;19.52;89.29
12203;BME280;6164;42.178;24.622;2023-04-25T08:02:25;98778.50;;;19.71;89.88
12203;BME280;6164;42.178;24.622;2023-04-25T08:04:53;98793.75;;;19.87;89.13
12203;BME280;6164;42.178;24.622;2023-04-25T08:07:20;98785.47;;;19.88;88.78
12203;BME280;6164;42.178;24.622;2023-04-25T08:09:47;98794.47;;;19.82;88.90
12203;BME280;6164;42.178;24.622;2023-04-25T08:12:13;98801.03;;;19.91;88.28
12203;BME280;6164;42.178;24.622;2023-04-25T08:14:40;98807.88;;;20.04;89.19
12203;BME280;6164;42.178;24.622;2023-04-25T08:17:09;98793.56;;;19.93;92.38
12203;BME280;6164;42.178;24.622;2023-04-25T08:19:35;98793.09;;;19.80;94.31
12203;BME280;6164;42.178;24.622;2023-04-25T08:22:03;98799.69;;;19.55;96.25
12203;BME280;6164;42.178;24.622;2023-04-25T08:24:29;98802.47;;;19.27;95.81
12203;BME280;6164;42.178;24.622;2023-04-25T08:26:56;98801.22;;;19.18;96.81
12203;BME280;6164;42.178;24.622;2023-04-25T08:29:24;98799.06;;;18.87;96.53
12203;BME280;6164;42.178;24.622;2023-04-25T08:31:51;98799.75;;;18.94;94.29
12203;BME280;6164;42.178;24.622;2023-04-25T08:34:19;98795.13;;;19.06;94.64
12203;BME280;6164;42.178;24.622;2023-04-25T08:36:46;98795.69;;;19.08;93.62
12203;BME280;6164;42.178;24.622;2023-04-25T08:39:13;98803.72;;;19.08;92.65
12203;BME280;6164;42.178;24.622;2023-04-25T08:41:40;98799.59;;;19.01;95.55
12203;BME280;6164;42.178;24.622;2023-04-25T08:44:11;98803.94;;;18.62;96.16
12203;BME280;6164;42.178;24.622;2023-04-25T08:46:38;98800.44;;;18.62;98.39
12203;BME280;6164;42.178;24.622;2023-04-25T08:49:06;98801.16;;;18.85;98.43
12203;BME280;6164;42.178;24.622;2023-04-25T08:51:44;98809.41;;;19.12;97.80
12203;BME280;6164;42.178;24.622;2023-04-25T08:54:13;98812.81;;;19.24;96.29
12203;BME280;6164;42.178;24.622;2023-04-25T08:56:43;98810.66;;;19.37;97.70
12203;BME280;6164;42.178;24.622;2023-04-25T08:59:10;98791.28;;;18.86;96.62
12203;BME280;6164;42.178;24.622;2023-04-25T09:01:37;98823.66;;;19.01;98.99
12203;BME280;6164;42.178;24.622;2023-04-25T09:04:04;98818.38;;;18.61;98.85
12203;BME280;6164;42.178;24.622;2023-04-25T09:06:31;98792.72;;;18.37;100.00
12203;BME280;6164;42.178;24.622;2023-04-25T09:09:04;98801.13;;;18.29;100.00
12203;BME280;6164;42.178;24.622;2023-04-25T09:11:31;98807.47;;;18.00;100.00
12203;BME280;6164;42.178;24.622;2023-04-25T09:14:12;98806.72;;;18.16;100.00
12203;BME280;6164;42.178;24.622;2023-04-25T09:16:58;98802.91;;;18.23;100.00
12203;BME280;6164;42.178;24.622;2023-04-25T09:19:28;98798.22;;;18.30;100.00
12203;BME280;6164;42.178;24.622;2023-04-25T09:21:56;98795.25;;;18.55;100.00
12203;BME280;6164;42.178;24.622;2023-04-25T09:24:35;98794.91;;;18.63;98.51
12203;BME280;6164;42.178;24.622;2023-04-25T09:27:09;98792.75;;;18.93;97.89
12203;BME280;6164;42.178;24.622;2023-04-25T09:29:37;98770.25;;;19.06;93.22
12203;BME280;6164;42.178;24.622;2023-04-25T09:32:19;98787.44;;;19.59;93.46
12203;BME280;6164;42.178;24.622;2023-04-25T09:34:47;98782.38;;;19.80;89.93
12203;BME280;6164;42.178;24.622;2023-04-25T09:37:18;98784.34;;;20.06;90.47
12203;BME280;6164;42.178;24.622;2023-04-25T09:39:47;98765.28;;;20.02;89.28
12203;BME280;6164;42.178;24.622;2023-04-25T09:42:15;98770.28;;;20.37;91.37
12203;BME280;6164;42.178;24.622;2023-04-25T09:44:43;98769.25;;;20.64;90.93
12203;BME280;6164;42.178;24.622;2023-04-25T09:47:11;98762.69;;;20.77;88.32
12203;BME280;6164;42.178;24.622;2023-04-25T09:49:39;98761.50;;;20.94;85.96
12203;BME280;6164;42.178;24.622;2023-04-25T09:52:07;98755.47;;;21.09;84.65
12203;BME280;6164;42.178;24.622;2023-04-25T09:54:34;98758.25;;;21.19;80.54
12203;BME280;6164;42.178;24.622;2023-04-25T09:57:09;98761.56;;;21.31;77.14
12203;BME280;6164;42.178;24.622;2023-04-25T09:59:39;98752.75;;;21.36;71.58
12203;BME280;6164;42.178;24.622;2023-04-25T10:02:07;98742.47;;;21.28;71.43
12203;BME280;6164;42.178;24.622;2023-04-25T10:04:35;98724.81;;;21.37;75.14
12203;BME280;6164;42.178;24.622;2023-04-25T10:07:05;98721.41;;;21.46;76.44
12203;BME280;6164;42.178;24.622;2023-04-25T10:09:33;98716.63;;;21.58;75.65
12203;BME280;6164;42.178;24.622;2023-04-25T10:12:00;98712.94;;;21.69;76.35
12203;BME280;6164;42.178;24.622;2023-04-25T10:14:29;98716.25;;;21.81;72.09
12203;BME280;6164;42.178;24.622;2023-04-25T10:16:57;98681.75;;;21.68;71.74
12203;BME280;6164;42.178;24.622;2023-04-25T10:19:24;98695.84;;;21.85;71.30
12203;BME280;6164;42.178;24.622;2023-04-25T10:21:55;98699.94;;;21.98;67.34
12203;BME280;6164;42.178;24.622;2023-04-25T10:24:25;98709.34;;;22.00;62.58
12203;BME280;6164;42.178;24.622;2023-04-25T10:26:52;98694.34;;;22.14;63.22
12203;BME280;6164;42.178;24.622;2023-04-25T10:29:23;98690.88;;;22.29;62.96
12203;BME280;6164;42.178;24.622;2023-04-25T10:31:52;98681.53;;;22.42;61.69
12203;BME280;6164;42.178;24.622;2023-04-25T10:34:19;98690.16;;;22.49;58.91
12203;BME280;6164;42.178;24.622;2023-04-25T10:36:50;98672.34;;;22.38;61.28
12203;BME280;6164;42.178;24.622;2023-04-25T10:39:22;98666.44;;;22.46;61.72
12203;BME280;6164;42.178;24.622;2023-04-25T10:41:55;98682.53;;;22.10;59.13
12203;BME280;6164;42.178;24.622;2023-04-25T10:44:22;98681.75;;;21.68;58.60
12203;BME280;6164;42.178;24.622;2023-04-25T10:46:49;98671.91;;;21.79;58.03
12203;BME280;6164;42.178;24.622;2023-04-25T10:49:30;98635.66;;;21.86;60.15
12203;BME280;6164;42.178;24.622;2023-04-25T10:52:16;98655.63;;;22.05;60.22
12203;BME280;6164;42.178;24.622;2023-04-25T10:54:46;98634.41;;;22.09;62.76
12203;BME280;6164;42.178;24.622;2023-04-25T10:57:36;98621.78;;;22.30;65.69
12203;BME280;6164;42.178;24.622;2023-04-25T11:00:11;98630.16;;;22.48;63.43
12203;BME280;6164;42.178;24.622;2023-04-25T11:02:41;98626.97;;;22.71;63.08
12203;BME280;6164;42.178;24.622;2023-04-25T11:05:09;98635.31;;;22.85;60.83
12203;BME280;6164;42.178;24.622;2023-04-25T11:07:45;98613.44;;;23.06;62.14
12203;BME280;6164;42.178;24.622;2023-04-25T11:10:15;98611.53;;;23.22;60.85
12203;BME280;6164;42.178;24.622;2023-04-25T11:12:42;98629.84;;;23.25;57.61
12203;BME280;6164;42.178;24.622;2023-04-25T11:15:09;98632.00;;;23.38;57.65
12203;BME280;6164;42.178;24.622;2023-04-25T11:17:36;98627.69;;;23.47;56.96
12203;BME280;6164;42.178;24.622;2023-04-25T11:20:05;98627.91;;;23.61;57.00
12203;BME280;6164;42.178;24.622;2023-04-25T11:22:37;98633.50;;;23.69;54.77
12203;BME280;6164;42.178;24.622;2023-04-25T11:25:06;98626.16;;;23.85;54.54
12203;BME280;6164;42.178;24.622;2023-04-25T11:27:33;98611.28;;;24.02;55.90
12203;BME280;6164;42.178;24.622;2023-04-25T11:30:11;98641.44;;;24.09;52.67
12203;BME280;6164;42.178;24.622;2023-04-25T11:32:39;98653.25;;;24.18;51.68
12203;BME280;6164;42.178;24.622;2023-04-25T11:35:06;98648.06;;;24.27;50.33
12203;BME280;6164;42.178;24.622;2023-04-25T11:37:33;98635.03;;;24.39;51.15
12203;BME280;6164;42.178;24.622;2023-04-25T11:40:02;98638.16;;;24.56;50.66
12203;BME280;6164;42.178;24.622;2023-04-25T11:42:31;98649.88;;;24.41;50.07
12203;BME280;6164;42.178;24.622;2023-04-25T11:44:58;98628.97;;;24.57;51.23
12203;BME280;6164;42.178;24.622;2023-04-25T11:47:28;98646.72;;;24.63;48.69
12203;BME280;6164;42.178;24.622;2023-04-25T11:49:55;98664.69;;;24.44;47.66
12203;BME280;6164;42.178;24.622;2023-04-25T11:52:23;98638.63;;;24.29;48.70
12203;BME280;6164;42.178;24.622;2023-04-25T11:54:50;98652.28;;;23.99;47.88
12203;BME280;6164;42.178;24.622;2023-04-25T11:57:20;98619.91;;;23.94;49.36
12203;BME280;6164;42.178;24.622;2023-04-25T11:59:47;98621.75;;;24.09;48.32
12203;BME280;6164;42.178;24.622;2023-04-25T12:02:24;98627.19;;;24.42;47.55
12203;BME280;6164;42.178;24.622;2023-04-25T12:04:51;98611.50;;;24.83;48.06
12203;BME280;6164;42.178;24.622;2023-04-25T12:07:18;98613.78;;;25.00;47.84
12203;BME280;6164;42.178;24.622;2023-04-25T12:09:52;98635.53;;;25.42;46.15
12203;BME280;6164;42.178;24.622;2023-04-25T12:12:20;98666.06;;;25.66;44.26
12203;BME280;6164;42.178;24.622;2023-04-25T12:14:47;98659.19;;;25.55;45.24
12203;BME280;6164;42.178;24.622;2023-04-25T12:17:14;98624.34;;;25.53;46.44
12203;BME280;6164;42.178;24.622;2023-04-25T12:19:41;98623.88;;;25.70;46.42
12203;BME280;6164;42.178;24.622;2023-04-25T12:22:19;98620.81;;;25.76;47.06
12203;BME280;6164;42.178;24.622;2023-04-25T12:24:47;98645.94;;;25.53;45.53
12203;BME280;6164;42.178;24.622;2023-04-25T12:27:14;98633.59;;;25.19;44.87
12203;BME280;6164;42.178;24.622;2023-04-25T12:29:52;98634.13;;;25.16;45.41
12203;BME280;6164;42.178;24.622;2023-04-25T12:32:19;98659.97;;;24.98;44.93
12203;BME280;6164;42.178;24.622;2023-04-25T12:34:46;98624.50;;;25.10;46.22
12203;BME280;6164;42.178;24.622;2023-04-25T12:37:13;98618.91;;;25.01;46.52
12203;BME280;6164;42.178;24.622;2023-04-25T12:39:40;98624.09;;;24.93;45.91
12203;BME280;6164;42.178;24.622;2023-04-25T12:42:07;98635.88;;;24.73;45.41
12203;BME280;6164;42.178;24.622;2023-04-25T12:44:37;98624.75;;;23.97;47.20
12203;BME280;6164;42.178;24.622;2023-04-25T12:47:05;98577.41;;;23.76;49.42
12203;BME280;6164;42.178;24.622;2023-04-25T12:49:32;98566.34;;;23.09;50.19
12203;BME280;6164;42.178;24.622;2023-04-25T12:51:59;98596.75;;;21.99;50.00
12203;BME280;6164;42.178;24.622;2023-04-25T12:54:26;98598.16;;;20.08;50.04
12203;BME280;6164;42.178;24.622;2023-04-25T12:56:53;98529.66;;;19.64;52.40
12203;BME280;6164;42.178;24.622;2023-04-25T12:59:20;98462.47;;;19.39;55.67